sensor_id;sensor_type;location;lat;lon;timestamp;pressure;altitude;pressure_sealevel;temperature;humidity
72486;BME280;60509;47.308;-122.428;2022-08-01T00:00:46;100081.21;;;43.94;4.41
72486;BME280;60509;47.308;-122.428;2022-08-01T00:03:11;100079.80;;;44.81;4.60
72486;BME280;60509;47.308;-122.428;2022-08-01T00:05:37;100079.33;;;40.97;4.88
72486;BME280;60509;47.308;-122.428;2022-08-01T00:08:03;100077.88;;;44.41;4.39
72486;BME280;60509;47.308;-122.428;2022-08-01T00:10:29;100074.36;;;43.46;4.83
72486;BME280;60509;47.308;-122.428;2022-08-01T00:12:55;100070.19;;;43.11;4.33
72486;BME280;60509;47.308;-122.428;2022-08-01T00:15:20;100066.05;;;43.98;4.21
72486;BME280;60509;47.308;-122.428;2022-08-01T00:17:46;100066.82;;;42.78;4.48
72486;BME280;60509;47.308;-122.428;2022-08-01T00:20:14;100061.02;;;43.00;3.96
72486;BME280;60509;47.308;-122.428;2022-08-01T00:22:38;100059.09;;;44.77;3.18
72486;BME280;60509;47.308;-122.428;2022-08-01T00:25:05;100057.37;;;44.42;3.37
72486;BME280;60509;47.308;-122.428;2022-08-01T00:27:29;100058.54;;;45.10;3.25
72486;BME280;60509;47.308;-122.428;2022-08-01T00:29:55;100054.30;;;46.09;2.84
72486;BME280;60509;47.308;-122.428;2022-08-01T00:32:21;100050.38;;;45.54;2.66
72486;BME280;60509;47.308;-122.428;2022-08-01T00:34:47;100048.31;;;45.04;3.26
72486;BME280;60509;47.308;-122.428;2022-08-01T00:37:12;100046.52;;;45.16;3.34
72486;BME280;60509;47.308;-122.428;2022-08-01T00:39:38;100046.78;;;46.06;2.91
72486;BME280;60509;47.308;-122.428;2022-08-01T00:42:07;100045.13;;;41.87;4.15
72486;BME280;60509;47.308;-122.428;2022-08-01T00:44:30;100048.22;;;44.33;3.28
72486;BME280;60509;47.308;-122.428;2022-08-01T00:46:55;100047.35;;;44.68;3.30
72486;BME280;60509;47.308;-122.428;2022-08-01T00:49:21;100044.14;;;45.00;3.03
72486;BME280;60509;47.308;-122.428;2022-08-01T00:51:47;100038.72;;;45.07;2.88
72486;BME280;60509;47.308;-122.428;2022-08-01T00:54:13;100036.91;;;46.92;2.45
72486;BME280;60509;47.308;-122.428;2022-08-01T00:56:38;100038.40;;;46.96;2.28
72486;BME280;60509;47.308;-122.428;2022-08-01T00:59:04;100039.11;;;45.28;2.71
72486;BME280;60509;47.308;-122.428;2022-08-01T01:01:30;100037.27;;;46.27;2.42
72486;BME280;60509;47.308;-122.428;2022-08-01T01:03:56;100040.24;;;43.35;2.98
72486;BME280;60509;47.308;-122.428;2022-08-01T01:06:30;100037.63;;;47.21;2.35
72486;BME280;60509;47.308;-122.428;2022-08-01T01:08:58;100036.42;;;47.42;1.93
72486;BME280;60509;47.308;-122.428;2022-08-01T01:11:18;100037.10;;;49.96;1.42
72486;BME280;60509;47.308;-122.428;2022-08-01T01:13:43;100035.24;;;47.91;1.49
72486;BME280;60509;47.308;-122.428;2022-08-01T01:16:08;100034.41;;;50.37;0.95
72486;BME280;60509;47.308;-122.428;2022-08-01T01:18:34;100032.26;;;48.96;1.26
72486;BME280;60509;47.308;-122.428;2022-08-01T01:21:03;100030.94;;;48.03;1.38
72486;BME280;60509;47.308;-122.428;2022-08-01T01:23:34;100031.12;;;47.08;1.47
72486;BME280;60509;47.308;-122.428;2022-08-01T01:26:04;100028.37;;;49.12;1.13
72486;BME280;60509;47.308;-122.428;2022-08-01T01:28:20;100024.24;;;50.44;1.41
72486;BME280;60509;47.308;-122.428;2022-08-01T01:30:41;100020.81;;;48.52;1.85
72486;BME280;60509;47.308;-122.428;2022-08-01T01:33:07;100016.26;;;48.28;1.48
72486;BME280;60509;47.308;-122.428;2022-08-01T01:35:34;100015.17;;;47.62;1.89
72486;BME280;60509;47.308;-122.428;2022-08-01T01:38:02;100013.88;;;48.11;1.77
72486;BME280;60509;47.308;-122.428;2022-08-01T01:40:23;100012.87;;;47.57;2.11
72486;BME280;60509;47.308;-122.428;2022-08-01T01:42:49;100012.10;;;48.26;2.02
72486;BME280;60509;47.308;-122.428;2022-08-01T01:45:14;100007.18;;;51.25;1.45
72486;BME280;60509;47.308;-122.428;2022-08-01T01:47:40;100007.61;;;45.48;1.95
72486;BME280;60509;47.308;-122.428;2022-08-01T01:50:08;100000.62;;;47.84;1.64
72486;BME280;60509;47.308;-122.428;2022-08-01T01:52:32;99996.37;;;50.29;1.49
72486;BME280;60509;47.308;-122.428;2022-08-01T01:54:59;100000.73;;;47.68;2.28
72486;BME280;60509;47.308;-122.428;2022-08-01T01:57:24;99998.58;;;47.32;2.16
72486;BME280;60509;47.308;-122.428;2022-08-01T01:59:50;99994.26;;;48.79;1.96
72486;BME280;60509;47.308;-122.428;2022-08-01T02:02:15;99987.49;;;49.34;1.86
72486;BME280;60509;47.308;-122.428;2022-08-01T02:04:42;99986.25;;;48.82;1.95
72486;BME280;60509;47.308;-122.428;2022-08-01T02:07:08;99989.62;;;47.74;2.59
72486;BME280;60509;47.308;-122.428;2022-08-01T02:09:34;99991.73;;;45.65;3.29
72486;BME280;60509;47.308;-122.428;2022-08-01T02:11:59;99988.74;;;45.72;3.33
72486;BME280;60509;47.308;-122.428;2022-08-01T02:14:24;99984.63;;;46.49;3.19
72486;BME280;60509;47.308;-122.428;2022-08-01T02:16:50;99985.84;;;44.29;3.66
72486;BME280;60509;47.308;-122.428;2022-08-01T02:19:17;99986.29;;;44.77;3.55
72486;BME280;60509;47.308;-122.428;2022-08-01T02:21:46;99991.33;;;43.95;3.97
72486;BME280;60509;47.308;-122.428;2022-08-01T02:24:12;99993.51;;;45.62;3.61
72486;BME280;60509;47.308;-122.428;2022-08-01T02:26:34;99992.38;;;45.21;3.62
72486;BME280;60509;47.308;-122.428;2022-08-01T02:29:05;99993.64;;;44.83;3.70
72486;BME280;60509;47.308;-122.428;2022-08-01T02:31:26;99994.78;;;45.94;3.91
72486;BME280;60509;47.308;-122.428;2022-08-01T02:33:56;99996.36;;;44.50;4.03
72486;BME280;60509;47.308;-122.428;2022-08-01T02:36:17;99996.48;;;42.69;4.68
72486;BME280;60509;47.308;-122.428;2022-08-01T02:38:45;99993.38;;;42.14;5.07
72486;BME280;60509;47.308;-122.428;2022-08-01T02:41:11;99996.65;;;39.98;5.82
72486;BME280;60509;47.308;-122.428;2022-08-01T02:43:37;99996.76;;;41.53;5.68
72486;BME280;60509;47.308;-122.428;2022-08-01T02:46:03;99997.22;;;41.85;5.68
72486;BME280;60509;47.308;-122.428;2022-08-01T02:48:27;99997.03;;;38.99;6.57
72486;BME280;60509;47.308;-122.428;2022-08-01T02:50:54;100001.05;;;38.99;6.93
72486;BME280;60509;47.308;-122.428;2022-08-01T02:53:20;100004.72;;;39.38;6.95
72486;BME280;60509;47.308;-122.428;2022-08-01T02:55:45;100009.38;;;39.01;7.09
72486;BME280;60509;47.308;-122.428;2022-08-01T02:58:13;100011.14;;;37.37;7.82
72486;BME280;60509;47.308;-122.428;2022-08-01T03:00:37;100014.40;;;34.64;8.91
72486;BME280;60509;47.308;-122.428;2022-08-01T03:03:02;100015.73;;;35.51;8.52
72486;BME280;60509;47.308;-122.428;2022-08-01T03:05:28;100020.21;;;35.39;9.10
72486;BME280;60509;47.308;-122.428;2022-08-01T03:07:54;100021.03;;;30.67;10.99
72486;BME280;60509;47.308;-122.428;2022-08-01T03:10:18;100026.93;;;31.98;11.37
72486;BME280;60509;47.308;-122.428;2022-08-01T03:12:43;100038.18;;;30.59;12.40
72486;BME280;60509;47.308;-122.428;2022-08-01T03:15:09;100045.94;;;29.46;14.19
72486;BME280;60509;47.308;-122.428;2022-08-01T03:17:34;100051.13;;;28.21;15.32
72486;BME280;60509;47.308;-122.428;2022-08-01T03:19:59;100063.68;;;27.93;16.37
72486;BME280;60509;47.308;-122.428;2022-08-01T03:22:24;100069.94;;;28.54;16.20
72486;BME280;60509;47.308;-122.428;2022-08-01T03:24:51;100068.97;;;28.03;16.60
72486;BME280;60509;47.308;-122.428;2022-08-01T03:27:14;100067.60;;;28.68;16.51
72486;BME280;60509;47.308;-122.428;2022-08-01T03:29:40;100068.80;;;27.21;16.90
72486;BME280;60509;47.308;-122.428;2022-08-01T03:32:05;100072.04;;;26.01;17.97
72486;BME280;60509;47.308;-122.428;2022-08-01T03:34:30;100070.48;;;23.31;20.33
72486;BME280;60509;47.308;-122.428;2022-08-01T03:36:59;100074.69;;;24.09;20.14
72486;BME280;60509;47.308;-122.428;2022-08-01T03:39:25;100077.59;;;24.06;20.26
72486;BME280;60509;47.308;-122.428;2022-08-01T03:41:51;100078.35;;;24.96;19.68
72486;BME280;60509;47.308;-122.428;2022-08-01T03:44:14;100078.33;;;23.18;21.46
72486;BME280;60509;47.308;-122.428;2022-08-01T03:46:42;100085.39;;;21.73;22.63
72486;BME280;60509;47.308;-122.428;2022-08-01T03:49:07;100088.96;;;22.27;22.13
72486;BME280;60509;47.308;-122.428;2022-08-01T03:51:28;100089.63;;;22.60;22.07
72486;BME280;60509;47.308;-122.428;2022-08-01T03:53:54;100093.50;;;20.92;23.03
72486;BME280;60509;47.308;-122.428;2022-08-01T03:56:19;100096.39;;;21.15;23.37
72486;BME280;60509;47.308;-122.428;2022-08-01T03:58:43;100096.27;;;21.96;22.74
72486;BME280;60509;47.308;-122.428;2022-08-01T04:01:08;100099.65;;;21.24;23.08
72486;BME280;60509;47.308;-122.428;2022-08-01T04:03:34;100099.62;;;20.78;23.60
72486;BME280;60509;47.308;-122.428;2022-08-01T04:05:59;100101.17;;;20.15;24.29
72486;BME280;60509;47.308;-122.428;2022-08-01T04:08:35;100103.43;;;20.27;24.20
72486;BME280;60509;47.308;-122.428;2022-08-01T04:10:50;100103.86;;;20.63;24.06
72486;BME280;60509;47.308;-122.428;2022-08-01T04:13:15;100109.45;;;19.81;24.60
72486;BME280;60509;47.308;-122.428;2022-08-01T04:15:41;100105.75;;;20.46;24.31
72486;BME280;60509;47.308;-122.428;2022-08-01T04:18:06;100109.36;;;20.42;24.61
72486;BME280;60509;47.308;-122.428;2022-08-01T04:20:32;100113.19;;;20.14;24.86
72486;BME280;60509;47.308;-122.428;2022-08-01T04:22:57;100117.75;;;19.05;26.16
72486;BME280;60509;47.308;-122.428;2022-08-01T04:25:26;100122.16;;;19.59;25.52
72486;BME280;60509;47.308;-122.428;2022-08-01T04:27:50;100126.87;;;19.14;26.20
72486;BME280;60509;47.308;-122.428;2022-08-01T04:30:14;100127.17;;;18.96;26.73
72486;BME280;60509;47.308;-122.428;2022-08-01T04:32:40;100129.99;;;18.49;26.83
72486;BME280;60509;47.308;-122.428;2022-08-01T04:35:07;100130.02;;;18.46;27.03
72486;BME280;60509;47.308;-122.428;2022-08-01T04:37:31;100135.88;;;18.29;27.78
72486;BME280;60509;47.308;-122.428;2022-08-01T04:39:57;100135.43;;;18.56;27.35
72486;BME280;60509;47.308;-122.428;2022-08-01T04:42:22;100137.51;;;18.87;26.97
72486;BME280;60509;47.308;-122.428;2022-08-01T04:44:47;100138.41;;;18.30;27.00
72486;BME280;60509;47.308;-122.428;2022-08-01T04:47:13;100139.53;;;18.11;27.28
72486;BME280;60509;47.308;-122.428;2022-08-01T04:49:38;100136.84;;;18.69;26.91
72486;BME280;60509;47.308;-122.428;2022-08-01T04:52:04;100136.54;;;18.19;27.41
72486;BME280;60509;47.308;-122.428;2022-08-01T04:54:30;100137.44;;;18.80;26.79
72486;BME280;60509;47.308;-122.428;2022-08-01T04:56:55;100139.87;;;17.86;27.43
72486;BME280;60509;47.308;-122.428;2022-08-01T04:59:20;100138.53;;;17.39;27.62
72486;BME280;60509;47.308;-122.428;2022-08-01T05:01:49;100139.23;;;17.48;27.51
72486;BME280;60509;47.308;-122.428;2022-08-01T05:04:11;100137.35;;;18.21;26.99
72486;BME280;60509;47.308;-122.428;2022-08-01T05:06:37;100141.65;;;17.36;27.55
72486;BME280;60509;47.308;-122.428;2022-08-01T05:09:02;100138.10;;;18.05;26.74
72486;BME280;60509;47.308;-122.428;2022-08-01T05:11:28;100145.03;;;17.68;27.09
72486;BME280;60509;47.308;-122.428;2022-08-01T05:13:53;100148.68;;;17.21;27.52
72486;BME280;60509;47.308;-122.428;2022-08-01T05:16:19;100150.56;;;17.19;27.65
72486;BME280;60509;47.308;-122.428;2022-08-01T05:18:44;100148.46;;;17.94;26.90
72486;BME280;60509;47.308;-122.428;2022-08-01T05:21:10;100149.17;;;17.32;27.64
72486;BME280;60509;47.308;-122.428;2022-08-01T05:23:35;100149.87;;;17.62;27.55
72486;BME280;60509;47.308;-122.428;2022-08-01T05:26:01;100148.58;;;17.01;28.66
72486;BME280;60509;47.308;-122.428;2022-08-01T05:28:26;100148.00;;;17.30;27.86
72486;BME280;60509;47.308;-122.428;2022-08-01T05:30:52;100149.01;;;16.19;29.51
72486;BME280;60509;47.308;-122.428;2022-08-01T05:33:18;100147.86;;;17.32;28.68
72486;BME280;60509;47.308;-122.428;2022-08-01T05:35:43;100148.56;;;16.62;28.96
72486;BME280;60509;47.308;-122.428;2022-08-01T05:38:09;100146.23;;;16.22;29.97
72486;BME280;60509;47.308;-122.428;2022-08-01T05:40:36;100149.17;;;16.51;29.78
72486;BME280;60509;47.308;-122.428;2022-08-01T05:43:00;100150.75;;;16.20;29.75
72486;BME280;60509;47.308;-122.428;2022-08-01T05:45:26;100151.30;;;16.32;29.87
72486;BME280;60509;47.308;-122.428;2022-08-01T05:47:51;100155.56;;;15.57;30.89
72486;BME280;60509;47.308;-122.428;2022-08-01T05:50:17;100157.01;;;15.86;30.79
72486;BME280;60509;47.308;-122.428;2022-08-01T05:52:42;100157.27;;;16.69;29.82
72486;BME280;60509;47.308;-122.428;2022-08-01T05:55:09;100155.32;;;16.60;29.81
72486;BME280;60509;47.308;-122.428;2022-08-01T05:57:34;100156.92;;;16.61;29.79
72486;BME280;60509;47.308;-122.428;2022-08-01T05:59:59;100159.44;;;15.43;30.94
72486;BME280;60509;47.308;-122.428;2022-08-01T06:02:25;100164.13;;;15.51;31.08
72486;BME280;60509;47.308;-122.428;2022-08-01T06:04:50;100168.32;;;14.38;32.33
72486;BME280;60509;47.308;-122.428;2022-08-01T06:07:16;100168.83;;;15.65;31.44
72486;BME280;60509;47.308;-122.428;2022-08-01T06:09:42;100169.47;;;13.84;33.05
72486;BME280;60509;47.308;-122.428;2022-08-01T06:12:08;100170.88;;;14.51;33.30
72486;BME280;60509;47.308;-122.428;2022-08-01T06:14:33;100173.34;;;13.66;34.13
72486;BME280;60509;47.308;-122.428;2022-08-01T06:16:59;100171.92;;;15.24;32.57
72486;BME280;60509;47.308;-122.428;2022-08-01T06:19:24;100169.97;;;15.81;32.19
72486;BME280;60509;47.308;-122.428;2022-08-01T06:21:50;100166.39;;;16.03;32.10
72486;BME280;60509;47.308;-122.428;2022-08-01T06:24:16;100162.06;;;15.58;32.36
72486;BME280;60509;47.308;-122.428;2022-08-01T06:26:41;100158.26;;;13.15;34.60
72486;BME280;60509;47.308;-122.428;2022-08-01T06:29:07;100153.68;;;13.69;35.17
72486;BME280;60509;47.308;-122.428;2022-08-01T06:31:33;100154.98;;;13.72;35.17
72486;BME280;60509;47.308;-122.428;2022-08-01T06:33:58;100157.07;;;14.33;34.76
72486;BME280;60509;47.308;-122.428;2022-08-01T06:36:24;100158.92;;;13.43;35.48
72486;BME280;60509;47.308;-122.428;2022-08-01T06:38:50;100159.18;;;13.96;34.99
72486;BME280;60509;47.308;-122.428;2022-08-01T06:41:15;100163.46;;;14.00;35.73
72486;BME280;60509;47.308;-122.428;2022-08-01T06:43:41;100167.98;;;12.99;36.85
72486;BME280;60509;47.308;-122.428;2022-08-01T06:46:07;100164.26;;;14.01;35.57
72486;BME280;60509;47.308;-122.428;2022-08-01T06:48:32;100166.21;;;14.39;35.60
72486;BME280;60509;47.308;-122.428;2022-08-01T06:50:58;100164.72;;;15.01;33.86
72486;BME280;60509;47.308;-122.428;2022-08-01T06:53:24;100166.76;;;13.67;35.93
72486;BME280;60509;47.308;-122.428;2022-08-01T06:55:50;100165.13;;;15.23;34.01
72486;BME280;60509;47.308;-122.428;2022-08-01T06:58:15;100165.68;;;15.29;33.83
72486;BME280;60509;47.308;-122.428;2022-08-01T07:00:41;100168.93;;;13.12;35.06
72486;BME280;60509;47.308;-122.428;2022-08-01T07:03:06;100167.22;;;14.30;35.18
72486;BME280;60509;47.308;-122.428;2022-08-01T07:05:32;100169.16;;;14.28;35.67
72486;BME280;60509;47.308;-122.428;2022-08-01T07:07:58;100165.41;;;14.68;35.06
72486;BME280;60509;47.308;-122.428;2022-08-01T07:10:24;100169.11;;;13.75;36.05
72486;BME280;60509;47.308;-122.428;2022-08-01T07:12:49;100171.25;;;14.31;35.52
72486;BME280;60509;47.308;-122.428;2022-08-01T07:15:15;100175.68;;;14.58;35.11
72486;BME280;60509;47.308;-122.428;2022-08-01T07:17:42;100182.92;;;14.42;36.01
72486;BME280;60509;47.308;-122.428;2022-08-01T07:20:08;100190.22;;;14.00;36.51
72486;BME280;60509;47.308;-122.428;2022-08-01T07:22:32;100187.62;;;13.01;37.12
72486;BME280;60509;47.308;-122.428;2022-08-01T07:24:58;100187.20;;;13.22;36.98
72486;BME280;60509;47.308;-122.428;2022-08-01T07:27:24;100187.30;;;14.14;36.17
72486;BME280;60509;47.308;-122.428;2022-08-01T07:29:49;100192.25;;;14.43;35.76
72486;BME280;60509;47.308;-122.428;2022-08-01T07:32:15;100196.96;;;14.06;36.28
72486;BME280;60509;47.308;-122.428;2022-08-01T07:34:41;100206.57;;;13.45;36.89
72486;BME280;60509;47.308;-122.428;2022-08-01T07:37:07;100205.57;;;14.23;36.15
72486;BME280;60509;47.308;-122.428;2022-08-01T07:39:32;100209.61;;;13.55;36.74
72486;BME280;60509;47.308;-122.428;2022-08-01T07:41:58;100213.27;;;14.10;36.50
72486;BME280;60509;47.308;-122.428;2022-08-01T07:44:23;100211.74;;;13.93;37.80
72486;BME280;60509;47.308;-122.428;2022-08-01T07:46:49;100214.10;;;12.99;39.09
72486;BME280;60509;47.308;-122.428;2022-08-01T07:49:15;100216.32;;;13.75;38.41
72486;BME280;60509;47.308;-122.428;2022-08-01T07:51:41;100216.60;;;13.58;37.93
72486;BME280;60509;47.308;-122.428;2022-08-01T07:54:06;100218.05;;;13.37;38.05
72486;BME280;60509;47.308;-122.428;2022-08-01T07:56:32;100220.92;;;13.72;37.93
72486;BME280;60509;47.308;-122.428;2022-08-01T07:58:58;100232.34;;;12.50;39.86
72486;BME280;60509;47.308;-122.428;2022-08-01T08:01:24;100229.31;;;13.52;39.93
72486;BME280;60509;47.308;-122.428;2022-08-01T08:03:49;100226.88;;;13.37;39.72
72486;BME280;60509;47.308;-122.428;2022-08-01T08:06:15;100231.40;;;12.74;41.29
72486;BME280;60509;47.308;-122.428;2022-08-01T08:08:41;100232.62;;;13.61;40.06
72486;BME280;60509;47.308;-122.428;2022-08-01T08:11:07;100231.24;;;12.93;40.38
72486;BME280;60509;47.308;-122.428;2022-08-01T08:13:32;100234.17;;;13.47;40.01
72486;BME280;60509;47.308;-122.428;2022-08-01T08:15:58;100228.65;;;12.76;40.97
72486;BME280;60509;47.308;-122.428;2022-08-01T08:18:24;100230.38;;;12.94;41.44
72486;BME280;60509;47.308;-122.428;2022-08-01T08:20:50;100231.58;;;11.86;42.57
72486;BME280;60509;47.308;-122.428;2022-08-01T08:23:15;100232.93;;;12.51;42.02
72486;BME280;60509;47.308;-122.428;2022-08-01T08:25:41;100235.13;;;13.27;41.80
72486;BME280;60509;47.308;-122.428;2022-08-01T08:28:07;100233.31;;;12.22;42.81
72486;BME280;60509;47.308;-122.428;2022-08-01T08:30:33;100232.72;;;12.57;42.38
72486;BME280;60509;47.308;-122.428;2022-08-01T08:32:59;100231.84;;;12.96;41.68
72486;BME280;60509;47.308;-122.428;2022-08-01T08:35:24;100232.36;;;12.07;43.17
72486;BME280;60509;47.308;-122.428;2022-08-01T08:37:50;100228.79;;;12.76;42.10
72486;BME280;60509;47.308;-122.428;2022-08-01T08:40:16;100224.40;;;13.48;41.57
72486;BME280;60509;47.308;-122.428;2022-08-01T08:42:42;100226.58;;;12.79;42.48
72486;BME280;60509;47.308;-122.428;2022-08-01T08:45:08;100228.55;;;12.33;43.56
72486;BME280;60509;47.308;-122.428;2022-08-01T08:47:33;100234.64;;;13.38;42.48
72486;BME280;60509;47.308;-122.428;2022-08-01T08:49:59;100235.09;;;11.79;44.64
72486;BME280;60509;47.308;-122.428;2022-08-01T08:52:25;100232.63;;;12.61;44.08
72486;BME280;60509;47.308;-122.428;2022-08-01T08:54:51;100235.34;;;12.18;44.37
72486;BME280;60509;47.308;-122.428;2022-08-01T08:57:18;100233.98;;;12.00;44.24
72486;BME280;60509;47.308;-122.428;2022-08-01T08:59:44;100239.46;;;11.04;45.56
72486;BME280;60509;47.308;-122.428;2022-08-01T09:02:08;100237.40;;;10.88;46.78
72486;BME280;60509;47.308;-122.428;2022-08-01T09:04:34;100237.25;;;11.60;45.91
72486;BME280;60509;47.308;-122.428;2022-08-01T09:06:59;100239.41;;;11.12;46.96
72486;BME280;60509;47.308;-122.428;2022-08-01T09:09:25;100237.66;;;11.07;47.43
72486;BME280;60509;47.308;-122.428;2022-08-01T09:11:51;100239.64;;;10.38;48.26
72486;BME280;60509;47.308;-122.428;2022-08-01T09:14:18;100243.05;;;10.04;49.59
72486;BME280;60509;47.308;-122.428;2022-08-01T09:16:44;100238.46;;;10.94;47.80
72486;BME280;60509;47.308;-122.428;2022-08-01T09:19:11;100242.67;;;10.58;48.24
72486;BME280;60509;47.308;-122.428;2022-08-01T09:21:34;100244.47;;;11.68;46.52
72486;BME280;60509;47.308;-122.428;2022-08-01T09:24:00;100246.94;;;10.14;47.97
72486;BME280;60509;47.308;-122.428;2022-08-01T09:26:30;100237.47;;;10.91;46.41
72486;BME280;60509;47.308;-122.428;2022-08-01T09:28:51;100233.16;;;11.36;47.02
72486;BME280;60509;47.308;-122.428;2022-08-01T09:31:18;100233.89;;;11.36;46.51
72486;BME280;60509;47.308;-122.428;2022-08-01T09:33:54;100236.89;;;10.77;46.62
72486;BME280;60509;47.308;-122.428;2022-08-01T09:36:09;100240.35;;;11.74;45.51
72486;BME280;60509;47.308;-122.428;2022-08-01T09:38:35;100248.04;;;11.61;44.81
72486;BME280;60509;47.308;-122.428;2022-08-01T09:41:01;100252.16;;;11.37;45.66
72486;BME280;60509;47.308;-122.428;2022-08-01T09:43:28;100251.10;;;11.26;45.90
72486;BME280;60509;47.308;-122.428;2022-08-01T09:45:53;100252.79;;;11.43;45.83
72486;BME280;60509;47.308;-122.428;2022-08-01T09:48:18;100255.08;;;11.53;45.56
72486;BME280;60509;47.308;-122.428;2022-08-01T09:50:45;100248.36;;;11.13;45.77
72486;BME280;60509;47.308;-122.428;2022-08-01T09:53:10;100238.76;;;11.20;45.61
72486;BME280;60509;47.308;-122.428;2022-08-01T09:55:35;100228.08;;;10.40;47.45
72486;BME280;60509;47.308;-122.428;2022-08-01T09:58:01;100219.56;;;11.50;44.53
72486;BME280;60509;47.308;-122.428;2022-08-01T10:00:28;100221.89;;;10.31;46.15
72486;BME280;60509;47.308;-122.428;2022-08-01T10:02:53;100225.34;;;11.52;44.33
72486;BME280;60509;47.308;-122.428;2022-08-01T10:05:30;100233.90;;;10.60;46.05
72486;BME280;60509;47.308;-122.428;2022-08-01T10:07:57;100259.02;;;10.55;47.04
72486;BME280;60509;47.308;-122.428;2022-08-01T10:10:13;100279.04;;;9.75;48.58
72486;BME280;60509;47.308;-122.428;2022-08-01T10:12:36;100251.50;;;10.58;46.86
72486;BME280;60509;47.308;-122.428;2022-08-01T10:15:03;100267.61;;;10.96;45.88
72486;BME280;60509;47.308;-122.428;2022-08-01T10:17:28;100270.35;;;9.99;47.77
72486;BME280;60509;47.308;-122.428;2022-08-01T10:19:54;100274.53;;;10.26;47.81
72486;BME280;60509;47.308;-122.428;2022-08-01T10:22:22;100260.39;;;10.60;46.96
72486;BME280;60509;47.308;-122.428;2022-08-01T10:24:47;100249.34;;;10.71;45.55
72486;BME280;60509;47.308;-122.428;2022-08-01T10:27:12;100224.64;;;11.11;44.47
72486;BME280;60509;47.308;-122.428;2022-08-01T10:29:41;100236.35;;;11.64;43.05
72486;BME280;60509;47.308;-122.428;2022-08-01T10:32:05;100253.49;;;11.48;43.20
72486;BME280;60509;47.308;-122.428;2022-08-01T10:34:30;100288.96;;;10.60;45.86
72486;BME280;60509;47.308;-122.428;2022-08-01T10:36:55;100271.69;;;10.05;46.97
72486;BME280;60509;47.308;-122.428;2022-08-01T10:39:21;100270.76;;;9.83;46.83
72486;BME280;60509;47.308;-122.428;2022-08-01T10:41:47;100260.76;;;10.34;45.99
72486;BME280;60509;47.308;-122.428;2022-08-01T10:44:12;100270.36;;;9.33;48.06
72486;BME280;60509;47.308;-122.428;2022-08-01T10:46:42;100285.39;;;9.64;49.16
72486;BME280;60509;47.308;-122.428;2022-08-01T10:49:08;100286.63;;;9.43;48.87
72486;BME280;60509;47.308;-122.428;2022-08-01T10:51:30;100291.29;;;9.95;47.83
72486;BME280;60509;47.308;-122.428;2022-08-01T10:53:56;100283.16;;;10.46;46.97
72486;BME280;60509;47.308;-122.428;2022-08-01T10:56:22;100297.30;;;8.39;51.35
72486;BME280;60509;47.308;-122.428;2022-08-01T10:58:48;100296.68;;;9.60;49.84
72486;BME280;60509;47.308;-122.428;2022-08-01T11:01:22;100302.26;;;8.61;53.15
72486;BME280;60509;47.308;-122.428;2022-08-01T11:03:40;100305.22;;;8.15;54.29
72486;BME280;60509;47.308;-122.428;2022-08-01T11:06:06;100288.62;;;9.29;51.80
72486;BME280;60509;47.308;-122.428;2022-08-01T11:08:34;100286.07;;;9.34;49.53
72486;BME280;60509;47.308;-122.428;2022-08-01T11:11:02;100298.99;;;10.17;47.80
72486;BME280;60509;47.308;-122.428;2022-08-01T11:14:01;100300.55;;;9.66;48.56
72486;BME280;60509;47.308;-122.428;2022-08-01T11:15:49;100297.75;;;9.63;47.42
72486;BME280;60509;47.308;-122.428;2022-08-01T11:18:31;100308.98;;;9.21;47.92
72486;BME280;60509;47.308;-122.428;2022-08-01T11:20:56;100318.89;;;8.60;50.53
72486;BME280;60509;47.308;-122.428;2022-08-01T11:23:20;100314.99;;;8.74;51.60
72486;BME280;60509;47.308;-122.428;2022-08-01T11:26:09;100303.48;;;7.98;52.69
72486;BME280;60509;47.308;-122.428;2022-08-01T11:28:17;100265.00;;;8.80;49.87
72486;BME280;60509;47.308;-122.428;2022-08-01T11:30:25;100309.90;;;9.87;47.85
72486;BME280;60509;47.308;-122.428;2022-08-01T11:32:52;100333.32;;;8.91;50.58
72486;BME280;60509;47.308;-122.428;2022-08-01T11:35:17;100307.23;;;9.05;50.02
72486;BME280;60509;47.308;-122.428;2022-08-01T11:37:42;100301.99;;;8.11;49.17
72486;BME280;60509;47.308;-122.428;2022-08-01T11:40:18;100326.55;;;9.23;49.05
72486;BME280;60509;47.308;-122.428;2022-08-01T11:42:34;100320.25;;;9.12;49.85
72486;BME280;60509;47.308;-122.428;2022-08-01T11:45:00;100334.61;;;9.37;49.68
72486;BME280;60509;47.308;-122.428;2022-08-01T11:47:58;100326.52;;;8.54;50.34
72486;BME280;60509;47.308;-122.428;2022-08-01T11:49:51;100342.28;;;9.39;49.03
72486;BME280;60509;47.308;-122.428;2022-08-01T11:52:23;100344.26;;;8.81;50.11
72486;BME280;60509;47.308;-122.428;2022-08-01T11:54:45;100345.16;;;8.80;50.38
72486;BME280;60509;47.308;-122.428;2022-08-01T11:57:11;100354.22;;;7.98;52.49
72486;BME280;60509;47.308;-122.428;2022-08-01T11:59:38;100364.30;;;9.13;50.90
72486;BME280;60509;47.308;-122.428;2022-08-01T12:02:01;100360.01;;;6.93;55.70
72486;BME280;60509;47.308;-122.428;2022-08-01T12:04:27;100363.58;;;7.87;54.13
72486;BME280;60509;47.308;-122.428;2022-08-01T12:06:53;100370.91;;;8.33;52.16
72486;BME280;60509;47.308;-122.428;2022-08-01T12:09:20;100371.64;;;8.79;51.56
72486;BME280;60509;47.308;-122.428;2022-08-01T12:11:45;100376.76;;;8.16;51.87
72486;BME280;60509;47.308;-122.428;2022-08-01T12:14:16;100374.75;;;8.75;50.85
72486;BME280;60509;47.308;-122.428;2022-08-01T12:16:36;100374.65;;;8.55;50.97